sensor_id;sensor_type;location;lat;lon;timestamp;P1;durP1;ratioP1;P2;durP2;ratioP2
71502;SDS011;59322;51.382;7.372;2023-08-08T00:00:45;36.42;;;34.13;;
71502;SDS011;59322;51.382;7.372;2023-08-08T00:03:11;35.55;;;33.25;;
71502;SDS011;59322;51.382;7.372;2023-08-08T00:05:37;38.65;;;36.38;;
71502;SDS011;59322;51.382;7.372;2023-08-08T00:08:03;42.28;;;39.83;;
71502;SDS011;59322;51.382;7.372;2023-08-08T00:10:29;44.38;;;41.83;;
71502;SDS011;59322;51.382;7.372;2023-08-08T00:12:55;44.85;;;42.08;;
71502;SDS011;59322;51.382;7.372;2023-08-08T00:15:21;44.88;;;41.97;;
71502;SDS011;59322;51.382;7.372;2023-08-08T00:17:47;43.22;;;40.55;;
71502;SDS011;59322;51.382;7.372;2023-08-08T00:20:13;47.65;;;44.70;;
71502;SDS011;59322;51.382;7.372;2023-08-08T00:22:38;47.17;;;44.33;;
71502;SDS011;59322;51.382;7.372;2023-08-08T00:25:04;45.95;;;42.92;;
71502;SDS011;59322;51.382;7.372;2023-08-08T00:27:30;46.17;;;43.28;;
71502;SDS011;59322;51.382;7.372;2023-08-08T00:29:56;46.72;;;43.92;;
71502;SDS011;59322;51.382;7.372;2023-08-08T00:32:22;48.28;;;45.38;;
71502;SDS011;59322;51.382;7.372;2023-08-08T00:34:48;47.58;;;44.67;;
71502;SDS011;59322;51.382;7.372;2023-08-08T00:37:14;45.58;;;42.78;;
71502;SDS011;59322;51.382;7.372;2023-08-08T00:39:40;48.30;;;45.42;;
71502;SDS011;59322;51.382;7.372;2023-08-08T00:42:06;45.92;;;43.03;;
71502;SDS011;59322;51.382;7.372;2023-08-08T00:44:32;49.10;;;46.08;;
71502;SDS011;59322;51.382;7.372;2023-08-08T00:46:57;49.75;;;46.78;;
71502;SDS011;59322;51.382;7.372;2023-08-08T00:49:23;48.33;;;45.33;;
71502;SDS011;59322;51.382;7.372;2023-08-08T00:51:49;47.22;;;44.22;;
71502;SDS011;59322;51.382;7.372;2023-08-08T00:54:15;46.20;;;43.33;;
71502;SDS011;59322;51.382;7.372;2023-08-08T00:56:41;47.70;;;44.90;;
71502;SDS011;59322;51.382;7.372;2023-08-08T00:59:07;47.40;;;44.40;;
71502;SDS011;59322;51.382;7.372;2023-08-08T01:01:34;48.50;;;45.60;;
71502;SDS011;59322;51.382;7.372;2023-08-08T01:04:00;47.47;;;44.65;;
71502;SDS011;59322;51.382;7.372;2023-08-08T01:06:29;46.40;;;43.50;;
71502;SDS011;59322;51.382;7.372;2023-08-08T01:08:57;46.10;;;43.10;;
71502;SDS011;59322;51.382;7.372;2023-08-08T01:11:25;46.90;;;44.05;;
71502;SDS011;59322;51.382;7.372;2023-08-08T01:13:51;47.10;;;44.30;;
71502;SDS011;59322;51.382;7.372;2023-08-08T01:16:19;46.45;;;43.65;;
71502;SDS011;59322;51.382;7.372;2023-08-08T01:18:45;47.33;;;44.45;;
71502;SDS011;59322;51.382;7.372;2023-08-08T01:21:12;45.78;;;42.92;;
71502;SDS011;59322;51.382;7.372;2023-08-08T01:23:45;46.95;;;43.95;;
71502;SDS011;59322;51.382;7.372;2023-08-08T01:26:11;45.15;;;42.55;;
71502;SDS011;59322;51.382;7.372;2023-08-08T01:28:38;45.83;;;43.00;;
71502;SDS011;59322;51.382;7.372;2023-08-08T01:31:04;45.20;;;42.40;;
71502;SDS011;59322;51.382;7.372;2023-08-08T01:33:30;45.33;;;42.28;;
71502;SDS011;59322;51.382;7.372;2023-08-08T01:35:58;42.35;;;39.72;;
71502;SDS011;59322;51.382;7.372;2023-08-08T01:38:28;40.78;;;38.20;;
71502;SDS011;59322;51.382;7.372;2023-08-08T01:40:56;34.60;;;32.40;;
71502;SDS011;59322;51.382;7.372;2023-08-08T01:43:22;32.78;;;30.70;;
71502;SDS011;59322;51.382;7.372;2023-08-08T01:45:49;30.92;;;28.85;;
71502;SDS011;59322;51.382;7.372;2023-08-08T01:48:16;31.63;;;29.63;;
71502;SDS011;59322;51.382;7.372;2023-08-08T01:50:42;31.45;;;29.50;;
71502;SDS011;59322;51.382;7.372;2023-08-08T01:53:08;33.05;;;30.85;;
71502;SDS011;59322;51.382;7.372;2023-08-08T01:55:33;33.17;;;30.92;;
71502;SDS011;59322;51.382;7.372;2023-08-08T01:57:59;34.35;;;32.17;;
71502;SDS011;59322;51.382;7.372;2023-08-08T02:00:25;35.25;;;32.95;;
71502;SDS011;59322;51.382;7.372;2023-08-08T02:02:51;38.95;;;36.63;;
71502;SDS011;59322;51.382;7.372;2023-08-08T02:05:17;42.90;;;40.30;;
71502;SDS011;59322;51.382;7.372;2023-08-08T02:07:43;42.35;;;39.65;;
71502;SDS011;59322;51.382;7.372;2023-08-08T02:10:09;41.33;;;38.83;;
71502;SDS011;59322;51.382;7.372;2023-08-08T02:12:35;42.63;;;40.08;;
71502;SDS011;59322;51.382;7.372;2023-08-08T02:15:01;41.40;;;38.65;;
71502;SDS011;59322;51.382;7.372;2023-08-08T02:17:27;42.53;;;39.83;;
71502;SDS011;59322;51.382;7.372;2023-08-08T02:19:53;41.15;;;38.65;;
71502;SDS011;59322;51.382;7.372;2023-08-08T02:22:19;41.15;;;38.55;;
71502;SDS011;59322;51.382;7.372;2023-08-08T02:24:44;40.88;;;38.45;;
71502;SDS011;59322;51.382;7.372;2023-08-08T02:27:11;39.10;;;36.65;;
71502;SDS011;59322;51.382;7.372;2023-08-08T02:29:37;43.38;;;40.75;;
71502;SDS011;59322;51.382;7.372;2023-08-08T02:32:03;42.72;;;40.03;;
71502;SDS011;59322;51.382;7.372;2023-08-08T02:34:29;43.40;;;40.25;;
71502;SDS011;59322;51.382;7.372;2023-08-08T02:36:55;43.83;;;40.78;;
71502;SDS011;59322;51.382;7.372;2023-08-08T02:39:21;46.95;;;43.92;;
71502;SDS011;59322;51.382;7.372;2023-08-08T02:41:47;43.22;;;40.42;;
71502;SDS011;59322;51.382;7.372;2023-08-08T02:44:12;40.72;;;37.88;;
71502;SDS011;59322;51.382;7.372;2023-08-08T02:46:38;40.53;;;37.90;;
71502;SDS011;59322;51.382;7.372;2023-08-08T02:49:04;33.50;;;31.40;;
71502;SDS011;59322;51.382;7.372;2023-08-08T02:51:30;34.25;;;32.17;;
71502;SDS011;59322;51.382;7.372;2023-08-08T02:53:56;32.33;;;30.20;;
71502;SDS011;59322;51.382;7.372;2023-08-08T02:56:22;34.20;;;31.85;;
71502;SDS011;59322;51.382;7.372;2023-08-08T02:58:48;33.78;;;31.48;;
71502;SDS011;59322;51.382;7.372;2023-08-08T03:01:14;33.08;;;31.08;;
71502;SDS011;59322;51.382;7.372;2023-08-08T03:03:40;32.17;;;29.98;;
71502;SDS011;59322;51.382;7.372;2023-08-08T03:06:06;33.53;;;31.33;;
71502;SDS011;59322;51.382;7.372;2023-08-08T03:08:32;32.88;;;30.70;;
71502;SDS011;59322;51.382;7.372;2023-08-08T03:10:58;32.10;;;30.00;;
71502;SDS011;59322;51.382;7.372;2023-08-08T03:13:23;32.47;;;30.35;;
71502;SDS011;59322;51.382;7.372;2023-08-08T03:15:49;34.78;;;32.60;;
71502;SDS011;59322;51.382;7.372;2023-08-08T03:18:15;31.48;;;29.20;;
71502;SDS011;59322;51.382;7.372;2023-08-08T03:20:41;31.92;;;29.90;;
71502;SDS011;59322;51.382;7.372;2023-08-08T03:23:07;35.83;;;33.20;;
71502;SDS011;59322;51.382;7.372;2023-08-08T03:25:33;39.53;;;37.13;;
71502;SDS011;59322;51.382;7.372;2023-08-08T03:27:59;45.60;;;42.85;;
71502;SDS011;59322;51.382;7.372;2023-08-08T03:30:25;41.13;;;38.45;;
71502;SDS011;59322;51.382;7.372;2023-08-08T03:32:51;41.33;;;38.65;;
71502;SDS011;59322;51.382;7.372;2023-08-08T03:35:17;46.00;;;42.95;;
71502;SDS011;59322;51.382;7.372;2023-08-08T03:37:42;48.83;;;45.83;;
71502;SDS011;59322;51.382;7.372;2023-08-08T03:40:08;51.42;;;48.17;;
71502;SDS011;59322;51.382;7.372;2023-08-08T03:42:34;56.65;;;53.10;;
71502;SDS011;59322;51.382;7.372;2023-08-08T03:45:00;54.22;;;50.72;;
71502;SDS011;59322;51.382;7.372;2023-08-08T03:47:26;46.85;;;43.95;;
71502;SDS011;59322;51.382;7.372;2023-08-08T03:49:55;50.10;;;46.78;;
71502;SDS011;59322;51.382;7.372;2023-08-08T03:52:21;46.22;;;43.03;;
71502;SDS011;59322;51.382;7.372;2023-08-08T03:54:47;41.67;;;38.97;;
71502;SDS011;59322;51.382;7.372;2023-08-08T03:57:13;44.53;;;41.28;;
71502;SDS011;59322;51.382;7.372;2023-08-08T03:59:39;42.80;;;39.85;;
71502;SDS011;59322;51.382;7.372;2023-08-08T04:02:04;41.65;;;38.55;;
71502;SDS011;59322;51.382;7.372;2023-08-08T04:04:30;39.38;;;36.55;;
71502;SDS011;59322;51.382;7.372;2023-08-08T04:06:56;38.50;;;35.92;;
71502;SDS011;59322;51.382;7.372;2023-08-08T04:09:22;39.15;;;36.45;;
71502;SDS011;59322;51.382;7.372;2023-08-08T04:11:48;40.85;;;37.95;;
71502;SDS011;59322;51.382;7.372;2023-08-08T04:14:14;41.75;;;38.70;;
71502;SDS011;59322;51.382;7.372;2023-08-08T04:16:40;46.22;;;42.88;;
71502;SDS011;59322;51.382;7.372;2023-08-08T04:19:06;46.70;;;43.53;;
71502;SDS011;59322;51.382;7.372;2023-08-08T04:21:32;51.30;;;47.65;;
71502;SDS011;59322;51.382;7.372;2023-08-08T04:24:01;53.38;;;49.53;;
71502;SDS011;59322;51.382;7.372;2023-08-08T04:26:27;53.33;;;49.42;;
71502;SDS011;59322;51.382;7.372;2023-08-08T04:28:53;54.58;;;50.92;;
71502;SDS011;59322;51.382;7.372;2023-08-08T04:31:19;54.10;;;50.40;;
71502;SDS011;59322;51.382;7.372;2023-08-08T04:33:45;57.25;;;53.38;;
71502;SDS011;59322;51.382;7.372;2023-08-08T04:36:10;60.50;;;56.72;;
71502;SDS011;59322;51.382;7.372;2023-08-08T04:38:36;55.85;;;52.15;;
71502;SDS011;59322;51.382;7.372;2023-08-08T04:41:02;59.72;;;55.38;;
71502;SDS011;59322;51.382;7.372;2023-08-08T04:43:28;58.22;;;54.42;;
71502;SDS011;59322;51.382;7.372;2023-08-08T04:45:54;58.55;;;54.38;;
71502;SDS011;59322;51.382;7.372;2023-08-08T04:48:20;57.65;;;53.08;;
71502;SDS011;59322;51.382;7.372;2023-08-08T04:50:46;57.92;;;53.92;;
71502;SDS011;59322;51.382;7.372;2023-08-08T04:53:12;58.55;;;54.55;;
71502;SDS011;59322;51.382;7.372;2023-08-08T04:55:38;57.13;;;52.92;;
71502;SDS011;59322;51.382;7.372;2023-08-08T04:58:04;56.80;;;52.53;;
71502;SDS011;59322;51.382;7.372;2023-08-08T05:00:30;59.88;;;55.40;;
71502;SDS011;59322;51.382;7.372;2023-08-08T05:02:56;59.47;;;55.08;;
71502;SDS011;59322;51.382;7.372;2023-08-08T05:05:22;60.13;;;55.88;;
71502;SDS011;59322;51.382;7.372;2023-08-08T05:07:48;60.22;;;55.90;;
71502;SDS011;59322;51.382;7.372;2023-08-08T05:10:14;59.40;;;55.10;;
71502;SDS011;59322;51.382;7.372;2023-08-08T05:12:39;60.50;;;55.83;;
71502;SDS011;59322;51.382;7.372;2023-08-08T05:15:05;60.92;;;56.53;;
71502;SDS011;59322;51.382;7.372;2023-08-08T05:17:31;62.53;;;57.65;;
71502;SDS011;59322;51.382;7.372;2023-08-08T05:19:57;60.45;;;55.88;;
71502;SDS011;59322;51.382;7.372;2023-08-08T05:22:23;62.35;;;57.80;;
71502;SDS011;59322;51.382;7.372;2023-08-08T05:24:49;64.80;;;60.40;;
71502;SDS011;59322;51.382;7.372;2023-08-08T05:27:15;65.05;;;60.05;;
71502;SDS011;59322;51.382;7.372;2023-08-08T05:29:41;63.97;;;59.03;;
71502;SDS011;59322;51.382;7.372;2023-08-08T05:32:07;64.30;;;59.38;;
71502;SDS011;59322;51.382;7.372;2023-08-08T05:34:33;62.78;;;57.92;;
71502;SDS011;59322;51.382;7.372;2023-08-08T05:36:59;63.58;;;58.55;;
71502;SDS011;59322;51.382;7.372;2023-08-08T05:39:25;67.32;;;62.30;;
71502;SDS011;59322;51.382;7.372;2023-08-08T05:41:52;75.05;;;69.53;;
71502;SDS011;59322;51.382;7.372;2023-08-08T05:44:17;71.07;;;65.75;;
71502;SDS011;59322;51.382;7.372;2023-08-08T05:46:43;73.90;;;67.97;;
71502;SDS011;59322;51.382;7.372;2023-08-08T05:49:09;75.82;;;69.60;;
71502;SDS011;59322;51.382;7.372;2023-08-08T05:51:35;75.18;;;68.97;;
71502;SDS011;59322;51.382;7.372;2023-08-08T05:54:01;72.65;;;67.03;;
71502;SDS011;59322;51.382;7.372;2023-08-08T05:56:36;70.05;;;64.63;;
71502;SDS011;59322;51.382;7.372;2023-08-08T05:59:02;69.05;;;63.55;;
71502;SDS011;59322;51.382;7.372;2023-08-08T06:01:28;69.72;;;64.22;;
71502;SDS011;59322;51.382;7.372;2023-08-08T06:03:54;66.10;;;60.92;;
71502;SDS011;59322;51.382;7.372;2023-08-08T06:06:20;70.60;;;64.85;;
71502;SDS011;59322;51.382;7.372;2023-08-08T06:08:46;74.15;;;68.40;;
71502;SDS011;59322;51.382;7.372;2023-08-08T06:11:12;69.30;;;63.90;;
71502;SDS011;59322;51.382;7.372;2023-08-08T06:13:38;76.95;;;71.45;;
71502;SDS011;59322;51.382;7.372;2023-08-08T06:16:04;80.40;;;74.60;;
71502;SDS011;59322;51.382;7.372;2023-08-08T06:18:30;76.38;;;71.18;;
71502;SDS011;59322;51.382;7.372;2023-08-08T06:20:55;70.22;;;64.68;;
71502;SDS011;59322;51.382;7.372;2023-08-08T06:23:21;75.20;;;69.45;;
71502;SDS011;59322;51.382;7.372;2023-08-08T06:25:47;78.10;;;72.28;;
71502;SDS011;59322;51.382;7.372;2023-08-08T06:28:13;69.43;;;63.78;;
71502;SDS011;59322;51.382;7.372;2023-08-08T06:30:39;73.05;;;67.43;;
71502;SDS011;59322;51.382;7.372;2023-08-08T06:33:05;72.70;;;66.72;;
71502;SDS011;59322;51.382;7.372;2023-08-08T06:35:31;68.75;;;63.05;;
71502;SDS011;59322;51.382;7.372;2023-08-08T06:37:57;69.22;;;63.60;;
71502;SDS011;59322;51.382;7.372;2023-08-08T06:40:23;75.38;;;69.72;;
71502;SDS011;59322;51.382;7.372;2023-08-08T06:42:48;73.43;;;67.82;;
71502;SDS011;59322;51.382;7.372;2023-08-08T06:45:14;75.63;;;69.97;;
71502;SDS011;59322;51.382;7.372;2023-08-08T06:47:40;75.22;;;69.05;;
71502;SDS011;59322;51.382;7.372;2023-08-08T06:50:06;77.53;;;71.68;;
71502;SDS011;59322;51.382;7.372;2023-08-08T06:52:32;82.07;;;76.25;;
71502;SDS011;59322;51.382;7.372;2023-08-08T06:54:58;85.35;;;79.15;;
71502;SDS011;59322;51.382;7.372;2023-08-08T06:57:24;81.10;;;74.72;;
71502;SDS011;59322;51.382;7.372;2023-08-08T06:59:50;79.40;;;73.50;;
71502;SDS011;59322;51.382;7.372;2023-08-08T07:02:16;79.65;;;73.28;;
71502;SDS011;59322;51.382;7.372;2023-08-08T07:04:42;89.25;;;82.43;;
71502;SDS011;59322;51.382;7.372;2023-08-08T07:07:08;81.93;;;76.03;;
71502;SDS011;59322;51.382;7.372;2023-08-08T07:09:34;72.40;;;66.85;;
71502;SDS011;59322;51.382;7.372;2023-08-08T07:12:00;62.10;;;57.15;;
71502;SDS011;59322;51.382;7.372;2023-08-08T07:14:26;62.08;;;56.95;;
71502;SDS011;59322;51.382;7.372;2023-08-08T07:16:52;60.40;;;55.80;;
71502;SDS011;59322;51.382;7.372;2023-08-08T07:19:17;64.85;;;59.67;;
71502;SDS011;59322;51.382;7.372;2023-08-08T07:21:43;58.00;;;52.80;;
71502;SDS011;59322;51.382;7.372;2023-08-08T07:24:09;58.53;;;53.72;;
71502;SDS011;59322;51.382;7.372;2023-08-08T07:26:35;60.28;;;55.78;;
71502;SDS011;59322;51.382;7.372;2023-08-08T07:29:01;58.63;;;54.00;;
71502;SDS011;59322;51.382;7.372;2023-08-08T07:31:27;53.22;;;48.92;;
71502;SDS011;59322;51.382;7.372;2023-08-08T07:33:53;61.97;;;57.33;;
71502;SDS011;59322;51.382;7.372;2023-08-08T07:36:19;66.60;;;61.75;;
71502;SDS011;59322;51.382;7.372;2023-08-08T07:38:45;72.95;;;67.88;;
71502;SDS011;59322;51.382;7.372;2023-08-08T07:41:10;77.47;;;71.90;;
71502;SDS011;59322;51.382;7.372;2023-08-08T07:43:36;76.20;;;70.65;;
71502;SDS011;59322;51.382;7.372;2023-08-08T07:46:02;68.93;;;63.95;;
71502;SDS011;59322;51.382;7.372;2023-08-08T07:48:28;75.35;;;69.88;;
71502;SDS011;59322;51.382;7.372;2023-08-08T07:50:54;73.57;;;68.60;;
71502;SDS011;59322;51.382;7.372;2023-08-08T07:53:20;70.70;;;65.68;;
71502;SDS011;59322;51.382;7.372;2023-08-08T07:55:46;68.00;;;63.20;;
71502;SDS011;59322;51.382;7.372;2023-08-08T07:58:12;64.50;;;60.10;;
71502;SDS011;59322;51.382;7.372;2023-08-08T08:00:38;63.70;;;59.10;;
71502;SDS011;59322;51.382;7.372;2023-08-08T08:03:04;56.58;;;52.17;;
71502;SDS011;59322;51.382;7.372;2023-08-08T08:05:30;53.50;;;49.72;;
71502;SDS011;59322;51.382;7.372;2023-08-08T08:07:55;50.03;;;46.47;;
71502;SDS011;59322;51.382;7.372;2023-08-08T08:10:21;52.63;;;49.17;;
71502;SDS011;59322;51.382;7.372;2023-08-08T08:12:47;53.03;;;49.30;;
71502;SDS011;59322;51.382;7.372;2023-08-08T08:15:13;49.10;;;45.47;;
71502;SDS011;59322;51.382;7.372;2023-08-08T08:17:39;41.88;;;38.75;;
71502;SDS011;59322;51.382;7.372;2023-08-08T08:20:05;33.72;;;31.02;;
71502;SDS011;59322;51.382;7.372;2023-08-08T08:22:31;35.03;;;32.40;;
71502;SDS011;59322;51.382;7.372;2023-08-08T08:24:57;33.75;;;30.88;;
71502;SDS011;59322;51.382;7.372;2023-08-08T08:27:23;32.75;;;29.75;;
71502;SDS011;59322;51.382;7.372;2023-08-08T08:29:49;31.15;;;28.90;;
71502;SDS011;59322;51.382;7.372;2023-08-08T08:32:15;37.08;;;34.42;;
71502;SDS011;59322;51.382;7.372;2023-08-08T08:34:41;34.28;;;31.63;;
71502;SDS011;59322;51.382;7.372;2023-08-08T08:37:07;31.33;;;28.60;;
71502;SDS011;59322;51.382;7.372;2023-08-08T08:39:33;30.85;;;28.30;;
71502;SDS011;59322;51.382;7.372;2023-08-08T08:41:59;32.97;;;30.73;;
71502;SDS011;59322;51.382;7.372;2023-08-08T08:44:25;29.85;;;27.65;;
71502;SDS011;59322;51.382;7.372;2023-08-08T08:46:52;31.85;;;29.80;;
71502;SDS011;59322;51.382;7.372;2023-08-08T08:49:19;31.20;;;28.40;;
71502;SDS011;59322;51.382;7.372;2023-08-08T08:51:47;30.70;;;27.77;;
71502;SDS011;59322;51.382;7.372;2023-08-08T08:54:13;29.42;;;27.17;;
71502;SDS011;59322;51.382;7.372;2023-08-08T08:56:39;28.52;;;26.10;;
71502;SDS011;59322;51.382;7.372;2023-08-08T08:59:05;27.70;;;25.65;;
71502;SDS011;59322;51.382;7.372;2023-08-08T09:01:31;28.33;;;25.83;;
71502;SDS011;59322;51.382;7.372;2023-08-08T09:03:57;29.77;;;27.48;;
71502;SDS011;59322;51.382;7.372;2023-08-08T09:06:23;29.02;;;26.83;;
71502;SDS011;59322;51.382;7.372;2023-08-08T09:08:49;27.17;;;25.10;;
71502;SDS011;59322;51.382;7.372;2023-08-08T09:11:15;26.08;;;24.17;;
71502;SDS011;59322;51.382;7.372;2023-08-08T09:13:41;27.60;;;25.50;;
71502;SDS011;59322;51.382;7.372;2023-08-08T09:16:07;26.45;;;24.27;;
71502;SDS011;59322;51.382;7.372;2023-08-08T09:18:33;28.50;;;26.40;;
71502;SDS011;59322;51.382;7.372;2023-08-08T09:20:59;25.98;;;24.00;;
71502;SDS011;59322;51.382;7.372;2023-08-08T09:23:25;37.08;;;34.25;;
71502;SDS011;59322;51.382;7.372;2023-08-08T09:25:51;33.22;;;30.73;;
71502;SDS011;59322;51.382;7.372;2023-08-08T09:28:17;35.35;;;32.92;;
71502;SDS011;59322;51.382;7.372;2023-08-08T09:30:43;39.35;;;36.78;;
71502;SDS011;59322;51.382;7.372;2023-08-08T09:33:09;39.22;;;36.42;;
71502;SDS011;59322;51.382;7.372;2023-08-08T09:35:37;30.00;;;27.90;;
71502;SDS011;59322;51.382;7.372;2023-08-08T09:38:03;30.00;;;27.88;;
71502;SDS011;59322;51.382;7.372;2023-08-08T09:40:29;29.45;;;27.42;;
71502;SDS011;59322;51.382;7.372;2023-08-08T09:42:56;25.00;;;23.00;;
71502;SDS011;59322;51.382;7.372;2023-08-08T09:45:22;25.10;;;23.25;;
71502;SDS011;59322;51.382;7.372;2023-08-08T09:47:49;24.98;;;23.00;;
71502;SDS011;59322;51.382;7.372;2023-08-08T09:50:15;24.10;;;22.38;;
71502;SDS011;59322;51.382;7.372;2023-08-08T09:52:41;25.80;;;23.95;;
71502;SDS011;59322;51.382;7.372;2023-08-08T09:55:08;24.98;;;23.05;;
71502;SDS011;59322;51.382;7.372;2023-08-08T09:57:37;24.15;;;22.42;;
71502;SDS011;59322;51.382;7.372;2023-08-08T10:00:04;24.83;;;23.10;;
71502;SDS011;59322;51.382;7.372;2023-08-08T10:02:30;28.23;;;26.05;;
71502;SDS011;59322;51.382;7.372;2023-08-08T10:04:57;25.55;;;23.88;;
71502;SDS011;59322;51.382;7.372;2023-08-08T10:07:23;28.45;;;26.45;;
71502;SDS011;59322;51.382;7.372;2023-08-08T10:09:49;30.75;;;28.55;;
71502;SDS011;59322;51.382;7.372;2023-08-08T10:12:15;25.90;;;24.13;;
71502;SDS011;59322;51.382;7.372;2023-08-08T10:14:41;25.67;;;23.75;;
71502;SDS011;59322;51.382;7.372;2023-08-08T10:17:08;27.08;;;24.98;;
71502;SDS011;59322;51.382;7.372;2023-08-08T10:19:33;25.85;;;23.88;;
71502;SDS011;59322;51.382;7.372;2023-08-08T10:22:02;31.05;;;28.80;;
71502;SDS011;59322;51.382;7.372;2023-08-08T10:24:32;35.70;;;33.55;;
71502;SDS011;59322;51.382;7.372;2023-08-08T10:26:59;34.47;;;32.08;;
71502;SDS011;59322;51.382;7.372;2023-08-08T10:29:26;29.20;;;27.10;;
71502;SDS011;59322;51.382;7.372;2023-08-08T10:31:53;34.63;;;32.25;;
71502;SDS011;59322;51.382;7.372;2023-08-08T10:34:20;36.88;;;34.28;;
71502;SDS011;59322;51.382;7.372;2023-08-08T10:36:49;36.70;;;34.10;;
71502;SDS011;59322;51.382;7.372;2023-08-08T10:39:15;22.65;;;21.02;;
71502;SDS011;59322;51.382;7.372;2023-08-08T10:41:45;25.05;;;23.27;;
71502;SDS011;59322;51.382;7.372;2023-08-08T10:44:12;29.38;;;26.92;;
71502;SDS011;59322;51.382;7.372;2023-08-08T10:46:40;27.30;;;25.27;;
71502;SDS011;59322;51.382;7.372;2023-08-08T10:49:06;25.67;;;23.77;;
71502;SDS011;59322;51.382;7.372;2023-08-08T10:51:39;25.27;;;23.38;;
71502;SDS011;59322;51.382;7.372;2023-08-08T10:54:05;24.25;;;22.52;;
71502;SDS011;59322;51.382;7.372;2023-08-08T10:56:32;27.80;;;25.65;;
71502;SDS011;59322;51.382;7.372;2023-08-08T10:58:58;28.48;;;26.45;;
71502;SDS011;59322;51.382;7.372;2023-08-08T11:01:24;29.65;;;27.75;;
71502;SDS011;59322;51.382;7.372;2023-08-08T11:03:50;26.02;;;24.30;;
71502;SDS011;59322;51.382;7.372;2023-08-08T11:06:16;32.88;;;30.58;;
71502;SDS011;59322;51.382;7.372;2023-08-08T11:08:42;25.85;;;23.92;;
71502;SDS011;59322;51.382;7.372;2023-08-08T11:11:08;24.25;;;22.58;;
71502;SDS011;59322;51.382;7.372;2023-08-08T11:13:34;27.05;;;25.05;;
71502;SDS011;59322;51.382;7.372;2023-08-08T11:16:00;27.27;;;25.00;;
71502;SDS011;59322;51.382;7.372;2023-08-08T11:18:26;24.88;;;22.80;;
71502;SDS011;59322;51.382;7.372;2023-08-08T11:20:52;25.48;;;23.67;;
71502;SDS011;59322;51.382;7.372;2023-08-08T11:23:18;26.42;;;24.35;;
71502;SDS011;59322;51.382;7.372;2023-08-08T11:25:44;26.23;;;24.52;;
71502;SDS011;59322;51.382;7.372;2023-08-08T11:28:11;26.40;;;24.70;;
71502;SDS011;59322;51.382;7.372;2023-08-08T11:30:37;27.42;;;25.15;;
71502;SDS011;59322;51.382;7.372;2023-08-08T11:33:04;27.88;;;25.90;;
71502;SDS011;59322;51.382;7.372;2023-08-08T11:35:30;30.48;;;28.38;;
71502;SDS011;59322;51.382;7.372;2023-08-08T11:37:56;26.38;;;24.48;;
71502;SDS011;59322;51.382;7.372;2023-08-08T11:40:23;25.77;;;23.95;;
71502;SDS011;59322;51.382;7.372;2023-08-08T11:42:51;32.95;;;30.58;;
71502;SDS011;59322;51.382;7.372;2023-08-08T11:45:17;27.58;;;25.30;;
71502;SDS011;59322;51.382;7.372;2023-08-08T11:47:43;26.42;;;24.60;;
71502;SDS011;59322;51.382;7.372;2023-08-08T11:50:10;28.70;;;26.80;;
71502;SDS011;59322;51.382;7.372;2023-08-08T11:52:36;34.83;;;32.35;;
71502;SDS011;59322;51.382;7.372;2023-08-08T11:55:05;40.83;;;37.72;;
71502;SDS011;59322;51.382;7.372;2023-08-08T11:57:31;35.08;;;32.75;;
71502;SDS011;59322;51.382;7.372;2023-08-08T11:59:57;36.05;;;33.50;;
71502;SDS011;59322;51.382;7.372;2023-08-08T12:02:25;37.50;;;35.10;;
71502;SDS011;59322;51.382;7.372;2023-08-08T12:04:51;36.17;;;33.80;;
71502;SDS011;59322;51.382;7.372;2023-08-08T12:07:17;33.97;;;31.58;;
71502;SDS011;59322;51.382;7.372;2023-08-08T12:09:43;27.40;;;25.35;;
71502;SDS011;59322;51.382;7.372;2023-08-08T12:12:09;28.23;;;26.23;;
71502;SDS011;59322;51.382;7.372;2023-08-08T12:14:38;26.20;;;24.38;;
71502;SDS011;59322;51.382;7.372;2023-08-08T12:17:04;27.10;;;25.17;;
71502;SDS011;59322;51.382;7.372;2023-08-08T12:19:30;26.25;;;24.40;;
71502;SDS011;59322;51.382;7.372;2023-08-08T12:21:56;25.27;;;23.58;;
71502;SDS011;59322;51.382;7.372;2023-08-08T12:24:21;31.23;;;29.00;;
71502;SDS011;59322;51.382;7.372;2023-08-08T12:26:47;27.92;;;25.88;;
71502;SDS011;59322;51.382;7.372;2023-08-08T12:29:13;26.83;;;24.63;;
71502;SDS011;59322;51.382;7.372;2023-08-08T12:31:39;27.17;;;25.23;;
71502;SDS011;59322;51.382;7.372;2023-08-08T12:34:05;26.65;;;24.52;;
71502;SDS011;59322;51.382;7.372;2023-08-08T12:36:31;27.27;;;25.42;;
71502;SDS011;59322;51.382;7.372;2023-08-08T12:38:57;27.98;;;26.05;;
71502;SDS011;59322;51.382;7.372;2023-08-08T12:41:23;29.40;;;27.27;;
71502;SDS011;59322;51.382;7.372;2023-08-08T12:43:49;29.35;;;27.35;;
71502;SDS011;59322;51.382;7.372;2023-08-08T12:46:15;30.92;;;28.88;;
71502;SDS011;59322;51.382;7.372;2023-08-08T12:48:41;33.78;;;31.52;;
71502;SDS011;59322;51.382;7.372;2023-08-08T12:51:07;34.75;;;32.20;;
71502;SDS011;59322;51.382;7.372;2023-08-08T12:53:33;33.13;;;30.73;;
71502;SDS011;59322;51.382;7.372;2023-08-08T12:55:59;33.45;;;30.98;;
71502;SDS011;59322;51.382;7.372;2023-08-08T12:58:25;35.70;;;33.13;;
71502;SDS011;59322;51.382;7.372;2023-08-08T13:00:51;34.58;;;32.28;;
71502;SDS011;59322;51.382;7.372;2023-08-08T13:03:17;33.47;;;31.10;;
71502;SDS011;59322;51.382;7.372;2023-08-08T13:05:43;30.27;;;28.10;;
71502;SDS011;59322;51.382;7.372;2023-08-08T13:08:09;33.28;;;31.00;;
71502;SDS011;59322;51.382;7.372;2023-08-08T13:10:35;27.88;;;25.67;;
71502;SDS011;59322;51.382;7.372;2023-08-08T13:13:01;25.30;;;23.48;;
71502;SDS011;59322;51.382;7.372;2023-08-08T13:15:27;21.85;;;20.25;;
71502;SDS011;59322;51.382;7.372;2023-08-08T13:17:53;24.00;;;22.30;;
71502;SDS011;59322;51.382;7.372;2023-08-08T13:20:19;22.73;;;20.83;;
71502;SDS011;59322;51.382;7.372;2023-08-08T13:22:45;21.80;;;20.20;;
71502;SDS011;59322;51.382;7.372;2023-08-08T13:25:11;22.13;;;20.58;;
71502;SDS011;59322;51.382;7.372;2023-08-08T13:27:37;21.75;;;20.15;;
71502;SDS011;59322;51.382;7.372;2023-08-08T13:30:04;21.27;;;19.58;;
71502;SDS011;59322;51.382;7.372;2023-08-08T13:32:30;21.30;;;19.80;;
71502;SDS011;59322;51.382;7.372;2023-08-08T13:34:56;23.13;;;21.42;;
71502;SDS011;59322;51.382;7.372;2023-08-08T13:37:22;20.70;;;19.13;;
71502;SDS011;59322;51.382;7.372;2023-08-08T13:39:47;21.65;;;19.95;;
71502;SDS011;59322;51.382;7.372;2023-08-08T13:42:13;21.67;;;19.88;;
71502;SDS011;59322;51.382;7.372;2023-08-08T13:44:39;24.35;;;22.83;;
71502;SDS011;59322;51.382;7.372;2023-08-08T13:47:05;24.13;;;22.52;;
71502;SDS011;59322;51.382;7.372;2023-08-08T13:49:31;20.40;;;18.95;;
71502;SDS011;59322;51.382;7.372;2023-08-08T13:51:57;20.27;;;18.65;;
71502;SDS011;59322;51.382;7.372;2023-08-08T13:54:23;21.02;;;19.25;;
71502;SDS011;59322;51.382;7.372;2023-08-08T13:56:49;20.80;;;19.13;;
71502;SDS011;59322;51.382;7.372;2023-08-08T13:59:15;20.17;;;18.55;;
71502;SDS011;59322;51.382;7.372;2023-08-08T14:01:41;22.15;;;20.65;;
71502;SDS011;59322;51.382;7.372;2023-08-08T14:04:06;20.65;;;19.15;;
71502;SDS011;59322;51.382;7.372;2023-08-08T14:06:32;20.77;;;18.95;;
71502;SDS011;59322;51.382;7.372;2023-08-08T14:08:58;19.02;;;17.70;;
71502;SDS011;59322;51.382;7.372;2023-08-08T14:11:24;21.75;;;19.95;;
71502;SDS011;59322;51.382;7.372;2023-08-08T14:13:50;21.52;;;19.80;;